sensor_id;sensor_type;location;lat;lon;timestamp;P1;durP1;ratioP1;P2;durP2;ratioP2
12290;SDS011;6208;48.956;9.076;2023-02-28T00:00:12;4.33;;;3.20;;
12290;SDS011;6208;48.956;9.076;2023-02-28T00:02:58;3.10;;;2.90;;
12290;SDS011;6208;48.956;9.076;2023-02-28T00:05:42;3.40;;;3.10;;
12290;SDS011;6208;48.956;9.076;2023-02-28T00:08:27;3.60;;;3.33;;
12290;SDS011;6208;48.956;9.076;2023-02-28T00:11:13;3.73;;;3.27;;
12290;SDS011;6208;48.956;9.076;2023-02-28T00:13:58;3.37;;;3.07;;
12290;SDS011;6208;48.956;9.076;2023-02-28T00:16:43;3.87;;;3.57;;
12290;SDS011;6208;48.956;9.076;2023-02-28T00:19:27;3.77;;;3.13;;
12290;SDS011;6208;48.956;9.076;2023-02-28T00:22:12;3.00;;;2.80;;
12290;SDS011;6208;48.956;9.076;2023-02-28T00:24:56;2.93;;;2.73;;
12290;SDS011;6208;48.956;9.076;2023-02-28T00:27:41;3.57;;;3.27;;
12290;SDS011;6208;48.956;9.076;2023-02-28T00:30:26;3.60;;;3.30;;
12290;SDS011;6208;48.956;9.076;2023-02-28T00:33:11;3.37;;;3.17;;
12290;SDS011;6208;48.956;9.076;2023-02-28T00:36:06;3.57;;;3.27;;
12290;SDS011;6208;48.956;9.076;2023-02-28T00:38:51;3.70;;;3.27;;
12290;SDS011;6208;48.956;9.076;2023-02-28T00:41:36;3.60;;;3.30;;
12290;SDS011;6208;48.956;9.076;2023-02-28T00:44:20;2.97;;;2.77;;
12290;SDS011;6208;48.956;9.076;2023-02-28T00:47:05;3.43;;;3.13;;
12290;SDS011;6208;48.956;9.076;2023-02-28T00:49:50;4.73;;;3.70;;
12290;SDS011;6208;48.956;9.076;2023-02-28T00:52:34;3.37;;;3.17;;
12290;SDS011;6208;48.956;9.076;2023-02-28T00:55:19;3.57;;;3.27;;
12290;SDS011;6208;48.956;9.076;2023-02-28T00:58:04;3.47;;;3.10;;
12290;SDS011;6208;48.956;9.076;2023-02-28T01:00:48;3.97;;;3.10;;
12290;SDS011;6208;48.956;9.076;2023-02-28T01:03:33;4.20;;;2.90;;
12290;SDS011;6208;48.956;9.076;2023-02-28T01:06:17;5.67;;;2.90;;
12290;SDS011;6208;48.956;9.076;2023-02-28T01:09:03;3.33;;;3.03;;
12290;SDS011;6208;48.956;9.076;2023-02-28T01:11:48;3.10;;;2.90;;
12290;SDS011;6208;48.956;9.076;2023-02-28T01:14:32;3.27;;;2.97;;
12290;SDS011;6208;48.956;9.076;2023-02-28T01:17:17;3.40;;;3.10;;
12290;SDS011;6208;48.956;9.076;2023-02-28T01:20:02;3.40;;;3.20;;
12290;SDS011;6208;48.956;9.076;2023-02-28T01:22:47;3.53;;;3.30;;
12290;SDS011;6208;48.956;9.076;2023-02-28T01:25:34;5.43;;;3.00;;
12290;SDS011;6208;48.956;9.076;2023-02-28T01:28:18;4.10;;;2.83;;
12290;SDS011;6208;48.956;9.076;2023-02-28T01:31:03;3.50;;;3.20;;
12290;SDS011;6208;48.956;9.076;2023-02-28T01:33:47;4.70;;;2.93;;
12290;SDS011;6208;48.956;9.076;2023-02-28T01:36:32;3.40;;;3.10;;
12290;SDS011;6208;48.956;9.076;2023-02-28T01:39:16;3.10;;;2.90;;
12290;SDS011;6208;48.956;9.076;2023-02-28T01:42:01;5.27;;;2.97;;
12290;SDS011;6208;48.956;9.076;2023-02-28T01:47:39;3.33;;;3.03;;
12290;SDS011;6208;48.956;9.076;2023-02-28T01:50:27;4.10;;;3.10;;
12290;SDS011;6208;48.956;9.076;2023-02-28T01:53:15;3.37;;;3.07;;
12290;SDS011;6208;48.956;9.076;2023-02-28T01:56:03;3.17;;;2.87;;
12290;SDS011;6208;48.956;9.076;2023-02-28T01:58:50;5.50;;;3.57;;
12290;SDS011;6208;48.956;9.076;2023-02-28T02:01:35;3.10;;;2.90;;
12290;SDS011;6208;48.956;9.076;2023-02-28T02:04:20;3.40;;;3.10;;
12290;SDS011;6208;48.956;9.076;2023-02-28T02:07:07;3.40;;;3.20;;
12290;SDS011;6208;48.956;9.076;2023-02-28T02:10:06;4.63;;;3.27;;
12290;SDS011;6208;48.956;9.076;2023-02-28T02:13:02;3.57;;;3.20;;
12290;SDS011;6208;48.956;9.076;2023-02-28T02:16:00;6.03;;;3.30;;
12290;SDS011;6208;48.956;9.076;2023-02-28T02:18:52;3.60;;;3.30;;
12290;SDS011;6208;48.956;9.076;2023-02-28T02:21:51;4.17;;;3.30;;
12290;SDS011;6208;48.956;9.076;2023-02-28T02:25:11;3.73;;;3.40;;
12290;SDS011;6208;48.956;9.076;2023-02-28T02:31:28;3.60;;;3.30;;
12290;SDS011;6208;48.956;9.076;2023-02-28T02:34:26;3.60;;;3.37;;
12290;SDS011;6208;48.956;9.076;2023-02-28T02:37:33;4.53;;;3.17;;
12290;SDS011;6208;48.956;9.076;2023-02-28T02:40:30;4.17;;;3.43;;
12290;SDS011;6208;48.956;9.076;2023-02-28T02:43:25;3.73;;;3.53;;
12290;SDS011;6208;48.956;9.076;2023-02-28T02:46:30;3.60;;;3.30;;
12290;SDS011;6208;48.956;9.076;2023-02-28T02:49:20;3.47;;;3.07;;
12290;SDS011;6208;48.956;9.076;2023-02-28T02:52:11;5.00;;;4.00;;
12290;SDS011;6208;48.956;9.076;2023-02-28T02:54:57;4.73;;;3.67;;
12290;SDS011;6208;48.956;9.076;2023-02-28T03:00:33;4.07;;;3.50;;
12290;SDS011;6208;48.956;9.076;2023-02-28T03:03:21;3.53;;;3.23;;
12290;SDS011;6208;48.956;9.076;2023-02-28T03:06:12;4.37;;;3.70;;
12290;SDS011;6208;48.956;9.076;2023-02-28T03:08:59;4.60;;;3.70;;
12290;SDS011;6208;48.956;9.076;2023-02-28T03:11:44;3.93;;;3.63;;
12290;SDS011;6208;48.956;9.076;2023-02-28T03:20:27;4.13;;;3.63;;
12290;SDS011;6208;48.956;9.076;2023-02-28T03:23:48;4.03;;;3.73;;
12290;SDS011;6208;48.956;9.076;2023-02-28T03:26:52;4.17;;;3.80;;
12290;SDS011;6208;48.956;9.076;2023-02-28T03:29:51;3.80;;;3.50;;
12290;SDS011;6208;48.956;9.076;2023-02-28T03:33:02;4.33;;;3.93;;
12290;SDS011;6208;48.956;9.076;2023-02-28T03:36:01;3.87;;;3.47;;
12290;SDS011;6208;48.956;9.076;2023-02-28T03:38:51;3.50;;;3.20;;
12290;SDS011;6208;48.956;9.076;2023-02-28T03:41:47;4.00;;;3.70;;
12290;SDS011;6208;48.956;9.076;2023-02-28T03:44:43;4.13;;;3.70;;
12290;SDS011;6208;48.956;9.076;2023-02-28T03:47:39;4.00;;;3.70;;
12290;SDS011;6208;48.956;9.076;2023-02-28T03:50:41;4.27;;;3.93;;
12290;SDS011;6208;48.956;9.076;2023-02-28T03:56:27;6.10;;;3.97;;
12290;SDS011;6208;48.956;9.076;2023-02-28T03:59:19;4.63;;;3.90;;
12290;SDS011;6208;48.956;9.076;2023-02-28T04:02:14;4.50;;;4.10;;
12290;SDS011;6208;48.956;9.076;2023-02-28T04:04:59;4.30;;;4.00;;
12290;SDS011;6208;48.956;9.076;2023-02-28T04:07:44;4.57;;;4.07;;
12290;SDS011;6208;48.956;9.076;2023-02-28T04:10:29;4.33;;;3.83;;
12290;SDS011;6208;48.956;9.076;2023-02-28T04:13:13;4.60;;;4.20;;
12290;SDS011;6208;48.956;9.076;2023-02-28T04:15:58;4.13;;;3.73;;
12290;SDS011;6208;48.956;9.076;2023-02-28T04:18:42;4.20;;;3.90;;
12290;SDS011;6208;48.956;9.076;2023-02-28T04:21:30;4.60;;;4.20;;
12290;SDS011;6208;48.956;9.076;2023-02-28T04:24:17;4.30;;;3.70;;
12290;SDS011;6208;48.956;9.076;2023-02-28T04:27:03;4.63;;;4.33;;
12290;SDS011;6208;48.956;9.076;2023-02-28T04:29:48;4.60;;;3.93;;
12290;SDS011;6208;48.956;9.076;2023-02-28T04:32:32;5.60;;;4.20;;
12290;SDS011;6208;48.956;9.076;2023-02-28T04:35:17;5.13;;;4.30;;
12290;SDS011;6208;48.956;9.076;2023-02-28T04:38:01;4.90;;;4.47;;
12290;SDS011;6208;48.956;9.076;2023-02-28T04:40:46;4.90;;;4.20;;
12290;SDS011;6208;48.956;9.076;2023-02-28T04:43:30;4.80;;;4.40;;
12290;SDS011;6208;48.956;9.076;2023-02-28T04:46:16;5.23;;;4.73;;
12290;SDS011;6208;48.956;9.076;2023-02-28T04:49:02;5.23;;;4.70;;
12290;SDS011;6208;48.956;9.076;2023-02-28T04:51:46;4.40;;;4.07;;
12290;SDS011;6208;48.956;9.076;2023-02-28T04:54:33;4.40;;;4.03;;
12290;SDS011;6208;48.956;9.076;2023-02-28T04:57:18;5.53;;;4.53;;
12290;SDS011;6208;48.956;9.076;2023-02-28T05:00:03;5.97;;;4.73;;
12290;SDS011;6208;48.956;9.076;2023-02-28T05:02:50;4.13;;;3.80;;
12290;SDS011;6208;48.956;9.076;2023-02-28T05:05:35;5.73;;;4.73;;
12290;SDS011;6208;48.956;9.076;2023-02-28T05:08:19;4.27;;;3.97;;
12290;SDS011;6208;48.956;9.076;2023-02-28T05:11:06;4.73;;;4.17;;
12290;SDS011;6208;48.956;9.076;2023-02-28T05:13:54;4.43;;;4.03;;
12290;SDS011;6208;48.956;9.076;2023-02-28T05:16:39;7.37;;;4.23;;
12290;SDS011;6208;48.956;9.076;2023-02-28T05:19:24;5.40;;;4.10;;
12290;SDS011;6208;48.956;9.076;2023-02-28T05:22:13;5.13;;;4.63;;
12290;SDS011;6208;48.956;9.076;2023-02-28T05:25:00;4.90;;;4.30;;
12290;SDS011;6208;48.956;9.076;2023-02-28T05:27:45;5.77;;;4.23;;
12290;SDS011;6208;48.956;9.076;2023-02-28T05:30:30;4.77;;;4.00;;
12290;SDS011;6208;48.956;9.076;2023-02-28T05:33:15;5.87;;;4.50;;
12290;SDS011;6208;48.956;9.076;2023-02-28T05:35:59;4.83;;;4.30;;
12290;SDS011;6208;48.956;9.076;2023-02-28T05:38:48;5.77;;;4.23;;
12290;SDS011;6208;48.956;9.076;2023-02-28T05:41:32;4.50;;;4.10;;
12290;SDS011;6208;48.956;9.076;2023-02-28T05:44:17;4.60;;;4.20;;
12290;SDS011;6208;48.956;9.076;2023-02-28T05:47:02;4.70;;;4.30;;
12290;SDS011;6208;48.956;9.076;2023-02-28T05:49:46;5.43;;;4.20;;
12290;SDS011;6208;48.956;9.076;2023-02-28T05:52:31;4.90;;;4.40;;
12290;SDS011;6208;48.956;9.076;2023-02-28T05:55:16;5.07;;;4.67;;
12290;SDS011;6208;48.956;9.076;2023-02-28T05:58:01;5.13;;;4.47;;
12290;SDS011;6208;48.956;9.076;2023-02-28T06:00:45;5.30;;;4.40;;
12290;SDS011;6208;48.956;9.076;2023-02-28T06:03:30;6.33;;;4.60;;
12290;SDS011;6208;48.956;9.076;2023-02-28T06:06:14;6.80;;;5.30;;
12290;SDS011;6208;48.956;9.076;2023-02-28T06:08:59;5.13;;;4.70;;
12290;SDS011;6208;48.956;9.076;2023-02-28T06:11:44;5.30;;;4.80;;
12290;SDS011;6208;48.956;9.076;2023-02-28T06:14:29;5.47;;;4.90;;
12290;SDS011;6208;48.956;9.076;2023-02-28T06:17:15;4.93;;;4.50;;
12290;SDS011;6208;48.956;9.076;2023-02-28T06:19:59;5.17;;;4.57;;
12290;SDS011;6208;48.956;9.076;2023-02-28T06:22:44;6.70;;;4.57;;
12290;SDS011;6208;48.956;9.076;2023-02-28T06:25:28;6.57;;;4.83;;
12290;SDS011;6208;48.956;9.076;2023-02-28T06:28:13;5.20;;;4.70;;
12290;SDS011;6208;48.956;9.076;2023-02-28T06:30:57;6.03;;;4.97;;
12290;SDS011;6208;48.956;9.076;2023-02-28T06:33:42;4.97;;;4.53;;
12290;SDS011;6208;48.956;9.076;2023-02-28T06:36:27;4.60;;;4.20;;
12290;SDS011;6208;48.956;9.076;2023-02-28T06:39:11;6.23;;;4.83;;
12290;SDS011;6208;48.956;9.076;2023-02-28T06:41:56;5.17;;;4.70;;
12290;SDS011;6208;48.956;9.076;2023-02-28T06:44:40;9.43;;;5.17;;
12290;SDS011;6208;48.956;9.076;2023-02-28T06:47:26;6.30;;;4.90;;
12290;SDS011;6208;48.956;9.076;2023-02-28T06:50:11;5.17;;;4.67;;
12290;SDS011;6208;48.956;9.076;2023-02-28T06:52:56;7.03;;;5.10;;
12290;SDS011;6208;48.956;9.076;2023-02-28T06:55:41;4.97;;;4.43;;
12290;SDS011;6208;48.956;9.076;2023-02-28T06:58:25;5.37;;;4.50;;
12290;SDS011;6208;48.956;9.076;2023-02-28T07:01:10;10.77;;;5.00;;
12290;SDS011;6208;48.956;9.076;2023-02-28T07:03:55;5.10;;;4.67;;
12290;SDS011;6208;48.956;9.076;2023-02-28T07:06:39;7.50;;;5.33;;
12290;SDS011;6208;48.956;9.076;2023-02-28T07:09:24;4.90;;;4.47;;
12290;SDS011;6208;48.956;9.076;2023-02-28T07:12:13;5.60;;;4.97;;
12290;SDS011;6208;48.956;9.076;2023-02-28T07:14:57;6.80;;;5.40;;
12290;SDS011;6208;48.956;9.076;2023-02-28T07:17:42;5.23;;;4.73;;
12290;SDS011;6208;48.956;9.076;2023-02-28T07:20:27;6.67;;;5.10;;
12290;SDS011;6208;48.956;9.076;2023-02-28T07:23:11;6.70;;;5.60;;
12290;SDS011;6208;48.956;9.076;2023-02-28T07:25:56;5.67;;;5.13;;
12290;SDS011;6208;48.956;9.076;2023-02-28T07:28:44;7.97;;;5.57;;
12290;SDS011;6208;48.956;9.076;2023-02-28T07:31:30;7.73;;;5.23;;
12290;SDS011;6208;48.956;9.076;2023-02-28T07:34:14;6.87;;;5.80;;
12290;SDS011;6208;48.956;9.076;2023-02-28T07:36:59;7.43;;;6.40;;
12290;SDS011;6208;48.956;9.076;2023-02-28T07:39:47;8.17;;;5.50;;
12290;SDS011;6208;48.956;9.076;2023-02-28T07:42:32;5.93;;;5.40;;
12290;SDS011;6208;48.956;9.076;2023-02-28T07:45:17;7.23;;;5.87;;
12290;SDS011;6208;48.956;9.076;2023-02-28T07:48:03;7.33;;;5.50;;
12290;SDS011;6208;48.956;9.076;2023-02-28T07:50:54;9.57;;;6.13;;
12290;SDS011;6208;48.956;9.076;2023-02-28T07:53:39;6.77;;;6.10;;
12290;SDS011;6208;48.956;9.076;2023-02-28T07:56:24;9.43;;;6.67;;
12290;SDS011;6208;48.956;9.076;2023-02-28T07:59:08;6.73;;;6.03;;
12290;SDS011;6208;48.956;9.076;2023-02-28T08:01:53;6.83;;;5.57;;
12290;SDS011;6208;48.956;9.076;2023-02-28T08:04:37;6.43;;;5.70;;
12290;SDS011;6208;48.956;9.076;2023-02-28T08:07:22;7.23;;;6.07;;
12290;SDS011;6208;48.956;9.076;2023-02-28T08:10:07;8.10;;;6.43;;
12290;SDS011;6208;48.956;9.076;2023-02-28T08:12:53;6.80;;;6.10;;
12290;SDS011;6208;48.956;9.076;2023-02-28T08:15:37;6.73;;;5.83;;
12290;SDS011;6208;48.956;9.076;2023-02-28T08:18:22;6.43;;;5.77;;
12290;SDS011;6208;48.956;9.076;2023-02-28T08:21:10;8.83;;;6.20;;
12290;SDS011;6208;48.956;9.076;2023-02-28T08:23:55;10.17;;;6.03;;
12290;SDS011;6208;48.956;9.076;2023-02-28T08:26:40;7.50;;;6.70;;
12290;SDS011;6208;48.956;9.076;2023-02-28T08:29:25;11.70;;;6.90;;
12290;SDS011;6208;48.956;9.076;2023-02-28T08:32:09;8.30;;;6.33;;
12290;SDS011;6208;48.956;9.076;2023-02-28T08:34:54;9.23;;;6.43;;
12290;SDS011;6208;48.956;9.076;2023-02-28T08:37:38;7.53;;;6.47;;
12290;SDS011;6208;48.956;9.076;2023-02-28T08:40:23;6.60;;;6.00;;
12290;SDS011;6208;48.956;9.076;2023-02-28T08:43:08;8.40;;;6.90;;
12290;SDS011;6208;48.956;9.076;2023-02-28T08:45:53;11.83;;;6.03;;
12290;SDS011;6208;48.956;9.076;2023-02-28T08:48:40;7.23;;;6.47;;
12290;SDS011;6208;48.956;9.076;2023-02-28T08:51:25;6.93;;;5.87;;
12290;SDS011;6208;48.956;9.076;2023-02-28T08:54:10;7.73;;;5.97;;
12290;SDS011;6208;48.956;9.076;2023-02-28T08:56:56;6.30;;;5.80;;
12290;SDS011;6208;48.956;9.076;2023-02-28T08:59:40;7.13;;;6.07;;
12290;SDS011;6208;48.956;9.076;2023-02-28T09:02:25;7.60;;;6.20;;
12290;SDS011;6208;48.956;9.076;2023-02-28T09:05:09;8.47;;;6.73;;
12290;SDS011;6208;48.956;9.076;2023-02-28T09:07:54;8.77;;;6.67;;
12290;SDS011;6208;48.956;9.076;2023-02-28T09:10:39;7.20;;;6.50;;
12290;SDS011;6208;48.956;9.076;2023-02-28T09:13:24;7.50;;;6.23;;
12290;SDS011;6208;48.956;9.076;2023-02-28T09:16:10;8.83;;;6.63;;
12290;SDS011;6208;48.956;9.076;2023-02-28T09:18:57;10.97;;;7.83;;
12290;SDS011;6208;48.956;9.076;2023-02-28T09:21:41;7.40;;;6.70;;
12290;SDS011;6208;48.956;9.076;2023-02-28T09:24:27;6.87;;;6.00;;
12290;SDS011;6208;48.956;9.076;2023-02-28T09:27:12;8.33;;;6.03;;
12290;SDS011;6208;48.956;9.076;2023-02-28T09:29:56;7.13;;;6.17;;
12290;SDS011;6208;48.956;9.076;2023-02-28T09:32:41;8.20;;;7.30;;
12290;SDS011;6208;48.956;9.076;2023-02-28T09:35:26;9.57;;;6.70;;
12290;SDS011;6208;48.956;9.076;2023-02-28T09:38:10;7.70;;;6.33;;
12290;SDS011;6208;48.956;9.076;2023-02-28T09:40:56;6.63;;;6.00;;
12290;SDS011;6208;48.956;9.076;2023-02-28T09:43:59;7.03;;;6.40;;
12290;SDS011;6208;48.956;9.076;2023-02-28T09:46:48;8.10;;;6.37;;
12290;SDS011;6208;48.956;9.076;2023-02-28T09:49:38;7.80;;;6.90;;
12290;SDS011;6208;48.956;9.076;2023-02-28T09:52:28;8.33;;;6.40;;
12290;SDS011;6208;48.956;9.076;2023-02-28T09:57:59;7.37;;;6.03;;
12290;SDS011;6208;48.956;9.076;2023-02-28T10:00:45;9.97;;;6.23;;
12290;SDS011;6208;48.956;9.076;2023-02-28T10:03:40;9.50;;;6.53;;
12290;SDS011;6208;48.956;9.076;2023-02-28T10:06:29;7.30;;;6.60;;
12290;SDS011;6208;48.956;9.076;2023-02-28T10:09:27;7.40;;;6.23;;
12290;SDS011;6208;48.956;9.076;2023-02-28T10:12:15;8.73;;;6.27;;
12290;SDS011;6208;48.956;9.076;2023-02-28T10:15:00;8.93;;;7.17;;
12290;SDS011;6208;48.956;9.076;2023-02-28T10:17:47;7.97;;;6.50;;
12290;SDS011;6208;48.956;9.076;2023-02-28T10:20:37;8.27;;;6.50;;
12290;SDS011;6208;48.956;9.076;2023-02-28T10:23:25;8.07;;;6.57;;
12290;SDS011;6208;48.956;9.076;2023-02-28T10:26:15;9.23;;;6.40;;
12290;SDS011;6208;48.956;9.076;2023-02-28T10:29:00;7.40;;;6.53;;
12290;SDS011;6208;48.956;9.076;2023-02-28T10:31:45;11.37;;;8.93;;
12290;SDS011;6208;48.956;9.076;2023-02-28T10:34:30;7.40;;;6.67;;
12290;SDS011;6208;48.956;9.076;2023-02-28T10:37:15;6.53;;;5.87;;
12290;SDS011;6208;48.956;9.076;2023-02-28T10:39:59;7.23;;;6.33;;
12290;SDS011;6208;48.956;9.076;2023-02-28T10:46:19;7.97;;;6.70;;
12290;SDS011;6208;48.956;9.076;2023-02-28T10:49:17;8.90;;;7.53;;
12290;SDS011;6208;48.956;9.076;2023-02-28T10:52:07;7.33;;;6.17;;
12290;SDS011;6208;48.956;9.076;2023-02-28T10:54:52;10.03;;;6.90;;
12290;SDS011;6208;48.956;9.076;2023-02-28T10:57:59;9.33;;;6.90;;
12290;SDS011;6208;48.956;9.076;2023-02-28T11:00:43;7.37;;;6.67;;
12290;SDS011;6208;48.956;9.076;2023-02-28T11:03:34;7.07;;;6.37;;
12290;SDS011;6208;48.956;9.076;2023-02-28T11:06:20;8.27;;;6.93;;
12290;SDS011;6208;48.956;9.076;2023-02-28T11:12:19;7.87;;;6.23;;
12290;SDS011;6208;48.956;9.076;2023-02-28T11:15:21;7.60;;;6.90;;
12290;SDS011;6208;48.956;9.076;2023-02-28T11:20:56;10.73;;;9.07;;
12290;SDS011;6208;48.956;9.076;2023-02-28T11:23:42;8.00;;;6.60;;
12290;SDS011;6208;48.956;9.076;2023-02-28T11:26:41;8.03;;;6.60;;
12290;SDS011;6208;48.956;9.076;2023-02-28T11:29:28;8.93;;;6.60;;
12290;SDS011;6208;48.956;9.076;2023-02-28T11:32:22;7.00;;;6.40;;
12290;SDS011;6208;48.956;9.076;2023-02-28T11:37:54;10.33;;;6.77;;
12290;SDS011;6208;48.956;9.076;2023-02-28T11:40:49;7.83;;;7.03;;
12290;SDS011;6208;48.956;9.076;2023-02-28T11:53:02;6.63;;;6.03;;
12290;SDS011;6208;48.956;9.076;2023-02-28T11:56:10;7.23;;;6.53;;
12290;SDS011;6208;48.956;9.076;2023-02-28T12:06:02;7.03;;;6.40;;
12290;SDS011;6208;48.956;9.076;2023-02-28T12:11:48;7.17;;;6.50;;
12290;SDS011;6208;48.956;9.076;2023-02-28T12:23:15;6.87;;;6.17;;
12290;SDS011;6208;48.956;9.076;2023-02-28T12:26:05;7.87;;;7.10;;
12290;SDS011;6208;48.956;9.076;2023-02-28T12:29:12;7.30;;;6.67;;
12290;SDS011;6208;48.956;9.076;2023-02-28T12:32:05;7.67;;;6.47;;
12290;SDS011;6208;48.956;9.076;2023-02-28T12:34:55;7.73;;;7.00;;
12290;SDS011;6208;48.956;9.076;2023-02-28T12:38:10;8.70;;;6.90;;
12290;SDS011;6208;48.956;9.076;2023-02-28T12:44:17;7.93;;;7.13;;
12290;SDS011;6208;48.956;9.076;2023-02-28T12:47:00;10.67;;;6.23;;
12290;SDS011;6208;48.956;9.076;2023-02-28T12:50:07;8.80;;;6.60;;
12290;SDS011;6208;48.956;9.076;2023-02-28T12:59:31;7.30;;;6.60;;
12290;SDS011;6208;48.956;9.076;2023-02-28T13:05:31;8.13;;;6.93;;
12290;SDS011;6208;48.956;9.076;2023-02-28T13:11:43;7.43;;;6.80;;
12290;SDS011;6208;48.956;9.076;2023-02-28T13:14:34;7.40;;;6.43;;
12290;SDS011;6208;48.956;9.076;2023-02-28T13:17:21;8.20;;;6.93;;
12290;SDS011;6208;48.956;9.076;2023-02-28T13:20:16;7.57;;;6.80;;
12290;SDS011;6208;48.956;9.076;2023-02-28T13:23:03;7.73;;;7.00;;
12290;SDS011;6208;48.956;9.076;2023-02-28T13:26:22;6.97;;;6.37;;
12290;SDS011;6208;48.956;9.076;2023-02-28T13:29:28;7.60;;;6.67;;
12290;SDS011;6208;48.956;9.076;2023-02-28T13:38:01;7.47;;;6.77;;
12290;SDS011;6208;48.956;9.076;2023-02-28T13:41:18;7.23;;;6.63;;
12290;SDS011;6208;48.956;9.076;2023-02-28T13:44:20;7.87;;;7.03;;
12290;SDS011;6208;48.956;9.076;2023-02-28T13:47:18;7.53;;;6.82;;
12290;SDS011;6208;48.956;9.076;2023-02-28T13:59:48;7.35;;;6.70;;
12290;SDS011;6208;48.956;9.076;2023-02-28T14:02:26;7.97;;;7.28;;
12290;SDS011;6208;48.956;9.076;2023-02-28T14:05:35;8.05;;;7.25;;
12290;SDS011;6208;48.956;9.076;2023-02-28T14:08:21;16.05;;;7.60;;
12290;SDS011;6208;48.956;9.076;2023-02-28T14:11:08;8.20;;;7.30;;
12290;SDS011;6208;48.956;9.076;2023-02-28T14:14:07;8.13;;;7.40;;
12290;SDS011;6208;48.956;9.076;2023-02-28T14:16:53;8.38;;;7.57;;
12290;SDS011;6208;48.956;9.076;2023-02-28T14:19:38;8.68;;;6.80;;
12290;SDS011;6208;48.956;9.076;2023-02-28T14:25:39;8.07;;;7.22;;
12290;SDS011;6208;48.956;9.076;2023-02-28T14:32:10;7.50;;;6.80;;
12290;SDS011;6208;48.956;9.076;2023-02-28T14:38:02;7.85;;;7.07;;
12290;SDS011;6208;48.956;9.076;2023-02-28T14:40:51;7.65;;;6.88;;
12290;SDS011;6208;48.956;9.076;2023-02-28T14:43:47;7.72;;;6.95;;
12290;SDS011;6208;48.956;9.076;2023-02-28T14:46:40;8.05;;;7.22;;
12290;SDS011;6208;48.956;9.076;2023-02-28T14:49:27;8.75;;;7.22;;
12290;SDS011;6208;48.956;9.076;2023-02-28T14:52:23;7.70;;;6.93;;
12290;SDS011;6208;48.956;9.076;2023-02-28T14:55:15;7.90;;;7.15;;
12290;SDS011;6208;48.956;9.076;2023-02-28T14:58:05;8.70;;;7.10;;
12290;SDS011;6208;48.956;9.076;2023-02-28T15:01:03;10.63;;;8.05;;
12290;SDS011;6208;48.956;9.076;2023-02-28T15:03:48;7.73;;;7.03;;
12290;SDS011;6208;48.956;9.076;2023-02-28T15:06:41;7.70;;;7.00;;
12290;SDS011;6208;48.956;9.076;2023-02-28T15:09:26;7.97;;;7.23;;
12290;SDS011;6208;48.956;9.076;2023-02-28T15:12:13;8.63;;;7.73;;
12290;SDS011;6208;48.956;9.076;2023-02-28T15:14:58;9.57;;;6.87;;
12290;SDS011;6208;48.956;9.076;2023-02-28T15:17:45;8.13;;;7.23;;
12290;SDS011;6208;48.956;9.076;2023-02-28T15:20:32;8.73;;;7.43;;
12290;SDS011;6208;48.956;9.076;2023-02-28T15:23:17;8.03;;;7.03;;
12290;SDS011;6208;48.956;9.076;2023-02-28T15:26:03;8.10;;;7.37;;
12290;SDS011;6208;48.956;9.076;2023-02-28T15:28:50;7.77;;;7.00;;
12290;SDS011;6208;48.956;9.076;2023-02-28T15:31:43;8.83;;;7.93;;
12290;SDS011;6208;48.956;9.076;2023-02-28T15:34:39;8.30;;;7.50;;
12290;SDS011;6208;48.956;9.076;2023-02-28T15:43:16;8.40;;;7.40;;
12290;SDS011;6208;48.956;9.076;2023-02-28T15:46:07;9.27;;;7.70;;
12290;SDS011;6208;48.956;9.076;2023-02-28T15:48:54;11.07;;;8.00;;
12290;SDS011;6208;48.956;9.076;2023-02-28T15:51:40;9.90;;;7.63;;
12290;SDS011;6208;48.956;9.076;2023-02-28T15:54:27;8.73;;;7.93;;
12290;SDS011;6208;48.956;9.076;2023-02-28T15:57:19;8.73;;;7.73;;
12290;SDS011;6208;48.956;9.076;2023-02-28T16:00:10;8.20;;;7.40;;
12290;SDS011;6208;48.956;9.076;2023-02-28T16:02:57;8.30;;;7.60;;
12290;SDS011;6208;48.956;9.076;2023-02-28T16:05:41;9.63;;;7.90;;
12290;SDS011;6208;48.956;9.076;2023-02-28T16:08:26;8.10;;;7.27;;
12290;SDS011;6208;48.956;9.076;2023-02-28T16:11:11;7.97;;;7.17;;
12290;SDS011;6208;48.956;9.076;2023-02-28T16:13:56;9.77;;;8.77;;
12290;SDS011;6208;48.956;9.076;2023-02-28T16:16:41;8.37;;;7.57;;
12290;SDS011;6208;48.956;9.076;2023-02-28T16:19:28;8.23;;;7.43;;
12290;SDS011;6208;48.956;9.076;2023-02-28T16:22:12;8.17;;;7.37;;
12290;SDS011;6208;48.956;9.076;2023-02-28T16:24:57;9.27;;;7.37;;
12290;SDS011;6208;48.956;9.076;2023-02-28T16:27:42;8.27;;;7.40;;
12290;SDS011;6208;48.956;9.076;2023-02-28T16:30:31;8.00;;;7.17;;
12290;SDS011;6208;48.956;9.076;2023-02-28T16:33:15;8.47;;;7.50;;
12290;SDS011;6208;48.956;9.076;2023-02-28T16:35:59;8.60;;;7.70;;
12290;SDS011;6208;48.956;9.076;2023-02-28T16:38:44;8.07;;;7.27;;
12290;SDS011;6208;48.956;9.076;2023-02-28T16:41:29;8.63;;;7.47;;
12290;SDS011;6208;48.956;9.076;2023-02-28T16:44:30;8.27;;;6.90;;
12290;SDS011;6208;48.956;9.076;2023-02-28T16:47:17;8.33;;;7.47;;
12290;SDS011;6208;48.956;9.076;2023-02-28T16:50:05;8.73;;;7.83;;
12290;SDS011;6208;48.956;9.076;2023-02-28T16:52:56;7.93;;;7.13;;
12290;SDS011;6208;48.956;9.076;2023-02-28T16:55:41;10.43;;;7.57;;
12290;SDS011;6208;48.956;9.076;2023-02-28T16:58:25;8.87;;;7.97;;
12290;SDS011;6208;48.956;9.076;2023-02-28T17:01:11;12.30;;;8.13;;
12290;SDS011;6208;48.956;9.076;2023-02-28T17:03:55;8.77;;;7.40;;
12290;SDS011;6208;48.956;9.076;2023-02-28T17:06:40;9.87;;;6.93;;
12290;SDS011;6208;48.956;9.076;2023-02-28T17:09:24;8.07;;;7.30;;
12290;SDS011;6208;48.956;9.076;2023-02-28T17:12:10;8.63;;;7.73;;
12290;SDS011;6208;48.956;9.076;2023-02-28T17:14:55;8.80;;;7.47;;
12290;SDS011;6208;48.956;9.076;2023-02-28T17:17:40;9.50;;;7.73;;
12290;SDS011;6208;48.956;9.076;2023-02-28T17:20:24;7.70;;;7.00;;
12290;SDS011;6208;48.956;9.076;2023-02-28T17:23:10;8.43;;;7.53;;
12290;SDS011;6208;48.956;9.076;2023-02-28T17:25:54;7.90;;;7.17;;
12290;SDS011;6208;48.956;9.076;2023-02-28T17:28:39;7.87;;;7.17;;
12290;SDS011;6208;48.956;9.076;2023-02-28T17:31:24;8.03;;;7.23;;
12290;SDS011;6208;48.956;9.076;2023-02-28T17:34:09;8.63;;;7.77;;
12290;SDS011;6208;48.956;9.076;2023-02-28T17:36:54;8.90;;;8.00;;
12290;SDS011;6208;48.956;9.076;2023-02-28T17:39:39;10.57;;;7.77;;
12290;SDS011;6208;48.956;9.076;2023-02-28T17:42:23;9.00;;;7.53;;
12290;SDS011;6208;48.956;9.076;2023-02-28T17:45:08;9.70;;;7.20;;
12290;SDS011;6208;48.956;9.076;2023-02-28T17:47:53;8.83;;;7.33;;
12290;SDS011;6208;48.956;9.076;2023-02-28T17:50:38;9.70;;;7.57;;
12290;SDS011;6208;48.956;9.076;2023-02-28T17:53:22;8.90;;;8.03;;
12290;SDS011;6208;48.956;9.076;2023-02-28T17:56:15;8.47;;;7.57;;
12290;SDS011;6208;48.956;9.076;2023-02-28T17:59:02;9.00;;;7.37;;
12290;SDS011;6208;48.956;9.076;2023-02-28T18:01:47;9.17;;;7.57;;
12290;SDS011;6208;48.956;9.076;2023-02-28T18:04:31;9.57;;;7.57;;
12290;SDS011;6208;48.956;9.076;2023-02-28T18:07:21;9.07;;;7.23;;
12290;SDS011;6208;48.956;9.076;2023-02-28T18:10:07;10.60;;;8.07;;
12290;SDS011;6208;48.956;9.076;2023-02-28T18:13:02;10.27;;;8.37;;
12290;SDS011;6208;48.956;9.076;2023-02-28T18:15:47;9.47;;;8.47;;
12290;SDS011;6208;48.956;9.076;2023-02-28T18:18:32;9.00;;;8.07;;
12290;SDS011;6208;48.956;9.076;2023-02-28T18:21:16;9.90;;;8.37;;
12290;SDS011;6208;48.956;9.076;2023-02-28T18:24:01;8.97;;;8.07;;
12290;SDS011;6208;48.956;9.076;2023-02-28T18:26:46;8.63;;;7.73;;
12290;SDS011;6208;48.956;9.076;2023-02-28T18:29:30;11.03;;;7.83;;
12290;SDS011;6208;48.956;9.076;2023-02-28T18:32:16;8.50;;;7.53;;
12290;SDS011;6208;48.956;9.076;2023-02-28T18:35:00;9.07;;;7.33;;
12290;SDS011;6208;48.956;9.076;2023-02-28T18:37:44;8.57;;;7.37;;
12290;SDS011;6208;48.956;9.076;2023-02-28T18:40:29;9.97;;;7.20;;
12290;SDS011;6208;48.956;9.076;2023-02-28T18:43:14;8.77;;;7.83;;
12290;SDS011;6208;48.956;9.076;2023-02-28T18:46:02;10.63;;;8.33;;
12290;SDS011;6208;48.956;9.076;2023-02-28T18:48:55;10.07;;;8.10;;
12290;SDS011;6208;48.956;9.076;2023-02-28T18:51:40;8.17;;;7.37;;
12290;SDS011;6208;48.956;9.076;2023-02-28T18:54:27;8.23;;;7.37;;